Time;durP1;ratioP1;P1;durP2;ratioP2;P2;SDS_P1;SDS_P2;PMS_P1;PMS_P2;Temp;Humidity;BMP_temperature;BMP_pressure;BME280_temperature;BME280_humidity;BME280_pressure;Samples;Min_cycle;Max_cycle;Signal;HPM_P1;HPM_P2
2023/10/24 00:00:38;;;;;;;11.67;6.93;;;;;;;;;;4979116;28;20190;-78
2023/10/24 00:03:04;;;;;;;10.70;6.87;;;;;;;;;;4979174;28;20272;-79
2023/10/24 00:05:30;;;;;;;9.63;7.20;;;;;;;;;;4995178;28;20190;-79
2023/10/24 00:07:56;;;;;;;12.03;7.23;;;;;;;;;;4979026;28;20182;-78
2023/10/24 00:10:23;;;;;;;10.23;7.03;;;;;;;;;;4995589;28;20224;-79
2023/10/24 00:12:50;;;;;;;11.13;7.07;;;;;;;;;;4995089;28;20194;-78
2023/10/24 00:15:16;;;;;;;10.90;7.17;;;;;;;;;;4979191;28;20281;-78
2023/10/24 00:17:42;;;;;;;8.97;7.57;;;;;;;;;;4995198;28;20182;-76
2023/10/24 00:20:09;;;;;;;11.00;7.57;;;;;;;;;;4996330;28;20174;-76
2023/10/24 00:22:35;;;;;;;9.07;7.13;;;;;;;;;;4995152;28;20234;-76
2023/10/24 00:25:01;;;;;;;10.53;7.90;;;;;;;;;;4998720;28;20277;-77
2023/10/24 00:27:30;;;;;;;8.23;7.10;;;;;;;;;;4985414;28;20217;-76
2023/10/24 00:29:56;;;;;;;10.23;7.60;;;;;;;;;;4980236;28;20210;-76
2023/10/24 00:32:22;;;;;;;10.00;8.50;;;;;;;;;;5012018;28;20235;-79
2023/10/24 00:34:48;;;;;;;8.87;7.80;;;;;;;;;;4995255;28;20189;-77
2023/10/24 00:37:14;;;;;;;10.40;9.20;;;;;;;;;;4995004;28;20304;-77
2023/10/24 00:39:40;;;;;;;11.47;10.30;;;;;;;;;;4978843;28;20284;-78
2023/10/24 00:42:06;;;;;;;12.53;11.07;;;;;;;;;;4978780;28;20196;-78
2023/10/24 00:44:33;;;;;;;13.53;11.97;;;;;;;;;;5002887;28;20310;-77
2023/10/24 00:47:00;;;;;;;14.13;11.93;;;;;;;;;;4994917;28;20228;-77
2023/10/24 00:49:26;;;;;;;14.03;11.73;;;;;;;;;;4995718;28;20186;-76
2023/10/24 00:51:53;;;;;;;12.93;11.60;;;;;;;;;;4994883;28;20178;-76
2023/10/24 00:54:19;;;;;;;13.07;11.77;;;;;;;;;;4994598;28;20244;-76
2023/10/24 00:56:46;;;;;;;13.77;12.33;;;;;;;;;;4994651;28;20186;-77
2023/10/24 00:59:12;;;;;;;13.77;11.87;;;;;;;;;;4978349;28;20185;-77
2023/10/24 01:01:38;;;;;;;13.10;11.77;;;;;;;;;;4981874;28;20209;-76
2023/10/24 01:04:05;;;;;;;15.90;12.43;;;;;;;;;;4994347;28;20178;-76
2023/10/24 01:06:31;;;;;;;14.60;13.07;;;;;;;;;;4994432;28;20173;-78
2023/10/24 01:08:57;;;;;;;15.07;13.07;;;;;;;;;;4994424;28;20182;-82
2023/10/24 01:11:23;;;;;;;14.13;12.83;;;;;;;;;;4990174;28;20223;-82
2023/10/24 01:13:50;;;;;;;15.53;13.70;;;;;;;;;;4975830;28;20181;-82
2023/10/24 01:16:16;;;;;;;14.33;12.93;;;;;;;;;;4982324;28;20183;-81
2023/10/24 01:18:42;;;;;;;16.20;14.50;;;;;;;;;;4987224;28;20277;-82
2023/10/24 01:21:08;;;;;;;15.30;13.80;;;;;;;;;;4983138;28;20190;-81
2023/10/24 01:23:35;;;;;;;16.60;14.13;;;;;;;;;;5006581;28;20229;-81
2023/10/24 01:26:02;;;;;;;16.00;14.33;;;;;;;;;;4993943;28;20214;-81
2023/10/24 01:28:29;;;;;;;16.17;14.47;;;;;;;;;;5000109;28;20178;-76
2023/10/24 01:30:55;;;;;;;15.10;13.60;;;;;;;;;;5013234;28;20208;-77
2023/10/24 01:33:22;;;;;;;15.57;13.93;;;;;;;;;;5003137;28;20192;-79
2023/10/24 01:35:48;;;;;;;16.13;14.33;;;;;;;;;;4993722;28;20194;-79
2023/10/24 01:38:15;;;;;;;15.90;14.20;;;;;;;;;;4990682;28;20206;-79
2023/10/24 01:40:41;;;;;;;15.77;13.97;;;;;;;;;;4974533;28;20182;-79
2023/10/24 01:43:07;;;;;;;14.43;13.13;;;;;;;;;;4974625;28;20187;-79
2023/10/24 01:45:33;;;;;;;14.40;12.87;;;;;;;;;;4977213;28;20201;-81
2023/10/24 01:47:59;;;;;;;14.20;12.67;;;;;;;;;;4993904;28;20209;-83
2023/10/24 01:50:25;;;;;;;14.03;12.63;;;;;;;;;;4977662;28;20214;-82
2023/10/24 01:52:51;;;;;;;16.10;12.70;;;;;;;;;;4978414;28;20193;-82
2023/10/24 01:55:16;;;;;;;18.00;12.57;;;;;;;;;;5002071;28;20343;-82
2023/10/24 01:57:43;;;;;;;15.93;11.93;;;;;;;;;;5002001;28;20193;-79
2023/10/24 02:00:09;;;;;;;14.33;11.43;;;;;;;;;;4997053;28;20193;-79
2023/10/24 02:02:35;;;;;;;11.83;10.40;;;;;;;;;;4976503;28;20182;-79
2023/10/24 02:05:02;;;;;;;11.20;9.70;;;;;;;;;;4981179;28;20218;-79
2023/10/24 02:07:28;;;;;;;11.00;9.40;;;;;;;;;;4993122;28;20236;-79
2023/10/24 02:09:54;;;;;;;10.20;9.10;;;;;;;;;;4981470;28;20210;-79
2023/10/24 02:12:20;;;;;;;10.20;9.10;;;;;;;;;;4997281;28;20181;-79
2023/10/24 02:14:46;;;;;;;10.20;9.20;;;;;;;;;;4978167;28;20186;-80
2023/10/24 02:17:12;;;;;;;9.73;8.73;;;;;;;;;;4992472;28;20198;-79
2023/10/24 02:19:38;;;;;;;10.17;8.00;;;;;;;;;;4994488;28;20190;-79
2023/10/24 02:22:04;;;;;;;10.67;8.40;;;;;;;;;;4993167;28;20249;-79
2023/10/24 02:24:32;;;;;;;8.37;7.60;;;;;;;;;;4985923;28;20221;-79
2023/10/24 02:26:58;;;;;;;9.37;6.87;;;;;;;;;;5000722;28;20205;-79
2023/10/24 02:29:24;;;;;;;9.13;6.50;;;;;;;;;;4985352;28;20189;-79
2023/10/24 02:31:50;;;;;;;7.70;6.90;;;;;;;;;;4999801;28;20277;-78
2023/10/24 02:34:16;;;;;;;7.87;6.40;;;;;;;;;;4996662;28;20190;-78
2023/10/24 02:36:42;;;;;;;7.40;6.50;;;;;;;;;;4997754;28;20189;-78
2023/10/24 02:39:08;;;;;;;9.20;6.50;;;;;;;;;;4997854;28;20174;-78
2023/10/24 02:41:34;;;;;;;8.97;6.30;;;;;;;;;;4999457;28;20204;-78
2023/10/24 02:44:00;;;;;;;6.33;5.70;;;;;;;;;;4997144;28;20201;-78
2023/10/24 02:46:26;;;;;;;8.07;5.43;;;;;;;;;;4996946;28;20196;-79
2023/10/24 02:48:52;;;;;;;5.80;5.20;;;;;;;;;;4987343;28;20190;-79
2023/10/24 02:51:18;;;;;;;5.50;5.00;;;;;;;;;;4995069;28;20252;-79
2023/10/24 02:53:44;;;;;;;6.07;5.43;;;;;;;;;;5000851;28;20188;-79
2023/10/24 02:56:10;;;;;;;6.60;5.70;;;;;;;;;;4983344;28;20210;-79
2023/10/24 02:58:36;;;;;;;7.63;6.07;;;;;;;;;;4982469;28;20200;-79
2023/10/24 03:01:05;;;;;;;7.10;6.10;;;;;;;;;;4995623;28;20201;-79
2023/10/24 03:03:32;;;;;;;9.10;6.60;;;;;;;;;;5001321;28;20235;-78
2023/10/24 03:05:57;;;;;;;6.67;5.97;;;;;;;;;;4996467;28;20186;-78
2023/10/24 03:08:23;;;;;;;8.97;6.50;;;;;;;;;;5001033;28;20243;-78
2023/10/24 03:10:49;;;;;;;9.80;6.40;;;;;;;;;;4982278;28;20224;-78
2023/10/24 03:13:15;;;;;;;9.93;7.00;;;;;;;;;;4995385;28;20189;-78
2023/10/24 03:15:43;;;;;;;8.90;7.13;;;;;;;;;;5000163;28;20178;-78
2023/10/24 03:18:09;;;;;;;8.07;7.13;;;;;;;;;;4995579;28;20210;-78
2023/10/24 03:20:35;;;;;;;8.00;7.10;;;;;;;;;;4996228;28;20240;-82
2023/10/24 03:23:02;;;;;;;9.10;6.97;;;;;;;;;;4995855;28;20229;-82
2023/10/24 03:25:28;;;;;;;8.53;7.13;;;;;;;;;;4995769;28;20213;-82
2023/10/24 03:27:54;;;;;;;8.50;7.57;;;;;;;;;;5002705;28;20197;-82
2023/10/24 03:30:21;;;;;;;8.70;7.73;;;;;;;;;;5000294;28;20214;-82
2023/10/24 03:32:47;;;;;;;9.27;8.20;;;;;;;;;;5009402;28;20182;-82
2023/10/24 03:35:14;;;;;;;9.60;8.00;;;;;;;;;;4997658;28;20228;-82
2023/10/24 03:37:40;;;;;;;8.43;7.63;;;;;;;;;;4982807;28;20183;-76
2023/10/24 03:40:06;;;;;;;8.93;7.63;;;;;;;;;;4983626;28;20194;-76
2023/10/24 03:42:32;;;;;;;7.70;6.83;;;;;;;;;;4994840;28;20248;-77
2023/10/24 03:44:58;;;;;;;7.83;7.00;;;;;;;;;;5001437;28;20292;-77
2023/10/24 03:47:25;;;;;;;7.60;6.80;;;;;;;;;;4994718;28;20235;-77
2023/10/24 03:49:51;;;;;;;8.53;6.27;;;;;;;;;;4999246;28;20212;-77
2023/10/24 03:52:17;;;;;;;8.07;6.90;;;;;;;;;;4995607;28;20196;-77
2023/10/24 03:54:43;;;;;;;9.57;6.57;;;;;;;;;;4980569;28;20209;-76
2023/10/24 03:57:09;;;;;;;8.40;6.40;;;;;;;;;;4983060;28;20190;-76
2023/10/24 03:59:35;;;;;;;7.30;6.60;;;;;;;;;;4963352;28;20178;-78
2023/10/24 04:02:01;;;;;;;8.53;6.13;;;;;;;;;;4997682;28;20189;-78
2023/10/24 04:04:30;;;;;;;7.43;6.60;;;;;;;;;;4984364;28;20186;-78
2023/10/24 04:06:56;;;;;;;6.17;5.67;;;;;;;;;;4990653;28;20242;-78
2023/10/24 04:09:22;;;;;;;6.27;5.77;;;;;;;;;;5009594;28;20336;-78
2023/10/24 04:11:48;;;;;;;6.53;5.70;;;;;;;;;;4992362;28;20281;-78
2023/10/24 04:14:14;;;;;;;5.97;5.30;;;;;;;;;;4982447;28;20190;-78
2023/10/24 04:16:40;;;;;;;7.00;5.77;;;;;;;;;;5003259;28;20187;-78
2023/10/24 04:19:06;;;;;;;5.50;5.00;;;;;;;;;;4976925;28;20184;-78
2023/10/24 04:21:32;;;;;;;7.67;5.60;;;;;;;;;;4993497;28;20277;-78
2023/10/24 04:23:58;;;;;;;6.00;5.50;;;;;;;;;;4992261;28;20217;-78
2023/10/24 04:26:24;;;;;;;5.87;5.37;;;;;;;;;;4991599;28;20230;-79
2023/10/24 04:28:50;;;;;;;6.10;5.60;;;;;;;;;;4995041;28;20194;-79
2023/10/24 04:31:16;;;;;;;6.70;5.50;;;;;;;;;;4997379;28;20206;-79
2023/10/24 04:33:42;;;;;;;6.20;5.60;;;;;;;;;;4994865;28;20180;-79
2023/10/24 04:36:10;;;;;;;6.53;5.90;;;;;;;;;;4995030;28;20185;-79
2023/10/24 04:38:36;;;;;;;6.27;5.67;;;;;;;;;;4979264;28;20253;-79
2023/10/24 04:41:02;;;;;;;6.33;5.83;;;;;;;;;;4978874;28;20213;-79
2023/10/24 04:43:28;;;;;;;5.87;5.37;;;;;;;;;;4996041;28;20179;-76
2023/10/24 04:45:54;;;;;;;6.07;5.47;;;;;;;;;;4978717;28;20194;-76
2023/10/24 04:48:20;;;;;;;6.07;5.57;;;;;;;;;;4978959;28;20186;-76
2023/10/24 04:50:46;;;;;;;7.70;6.07;;;;;;;;;;4995480;28;20206;-76
2023/10/24 04:53:12;;;;;;;7.57;6.00;;;;;;;;;;4978286;28;20189;-77
2023/10/24 04:55:39;;;;;;;6.30;5.70;;;;;;;;;;4974920;28;20191;-76
2023/10/24 04:58:06;;;;;;;7.27;6.17;;;;;;;;;;4975647;28;20182;-76
2023/10/24 05:00:32;;;;;;;8.13;5.77;;;;;;;;;;4994334;28;20261;-77
2023/10/24 05:02:58;;;;;;;7.80;6.23;;;;;;;;;;4991182;28;20201;-76
2023/10/24 05:05:25;;;;;;;6.40;5.80;;;;;;;;;;4974930;28;20204;-76
2023/10/24 05:07:51;;;;;;;8.93;5.63;;;;;;;;;;4994692;28;20190;-76
2023/10/24 05:10:17;;;;;;;6.83;6.13;;;;;;;;;;4994407;28;20252;-77
2023/10/24 05:12:43;;;;;;;6.43;5.93;;;;;;;;;;4993359;28;20190;-76
2023/10/24 05:15:09;;;;;;;6.50;5.90;;;;;;;;;;4983321;28;20217;-82
2023/10/24 05:17:35;;;;;;;6.47;5.73;;;;;;;;;;4994328;28;20182;-79
2023/10/24 05:20:03;;;;;;;6.40;5.80;;;;;;;;;;4978592;28;20190;-79
2023/10/24 05:22:30;;;;;;;6.83;6.13;;;;;;;;;;4993684;28;20257;-79
2023/10/24 05:24:56;;;;;;;7.30;6.50;;;;;;;;;;5000828;28;20190;-79
2023/10/24 05:27:22;;;;;;;7.80;6.43;;;;;;;;;;4993961;28;20197;-79
2023/10/24 05:29:48;;;;;;;7.43;6.60;;;;;;;;;;4991094;28;20214;-80
2023/10/24 05:32:14;;;;;;;8.50;7.60;;;;;;;;;;4975567;28;20194;-79
2023/10/24 05:34:40;;;;;;;7.63;6.90;;;;;;;;;;4976129;28;20217;-78
2023/10/24 05:37:06;;;;;;;7.40;6.73;;;;;;;;;;4990365;28;20210;-77
2023/10/24 05:39:32;;;;;;;7.93;7.27;;;;;;;;;;4976041;28;20182;-78
2023/10/24 05:41:58;;;;;;;8.07;7.27;;;;;;;;;;5002960;28;20213;-77
2023/10/24 05:44:24;;;;;;;8.87;7.30;;;;;;;;;;4990819;28;20193;-78
2023/10/24 05:46:50;;;;;;;8.93;8.03;;;;;;;;;;4985498;28;20183;-78
2023/10/24 05:49:17;;;;;;;9.17;7.90;;;;;;;;;;4991199;28;20256;-78
2023/10/24 05:51:43;;;;;;;8.77;7.50;;;;;;;;;;4990748;28;20218;-82
2023/10/24 05:54:09;;;;;;;8.03;7.20;;;;;;;;;;4980622;28;20265;-81
2023/10/24 05:56:35;;;;;;;8.27;7.47;;;;;;;;;;4976367;28;20217;-82
2023/10/24 05:59:01;;;;;;;8.67;7.50;;;;;;;;;;4981152;28;20182;-82
2023/10/24 06:01:27;;;;;;;8.10;7.30;;;;;;;;;;4994233;28;20193;-82
2023/10/24 06:03:53;;;;;;;8.87;7.47;;;;;;;;;;5003651;28;20193;-82
2023/10/24 06:06:19;;;;;;;8.53;7.43;;;;;;;;;;5001702;28;20255;-79
2023/10/24 06:08:45;;;;;;;9.23;7.60;;;;;;;;;;4988550;28;20252;-78
2023/10/24 06:11:12;;;;;;;8.10;7.30;;;;;;;;;;4985340;28;20296;-79
2023/10/24 06:13:38;;;;;;;8.00;7.17;;;;;;;;;;4989542;28;20279;-78
2023/10/24 06:16:08;;;;;;;9.87;8.03;;;;;;;;;;4982945;28;20228;-78
2023/10/24 06:18:34;;;;;;;9.17;8.07;;;;;;;;;;5001025;28;20189;-78
2023/10/24 06:21:03;;;;;;;8.13;7.43;;;;;;;;;;5013165;28;20184;-78
2023/10/24 06:23:29;;;;;;;8.83;7.70;;;;;;;;;;5005391;28;20231;-77
2023/10/24 06:25:56;;;;;;;8.83;7.93;;;;;;;;;;5012910;28;20280;-77
2023/10/24 06:28:22;;;;;;;9.00;8.20;;;;;;;;;;4986410;28;20190;-77
2023/10/24 06:30:50;;;;;;;9.27;8.20;;;;;;;;;;4995788;28;20209;-76
2023/10/24 06:33:16;;;;;;;9.40;8.50;;;;;;;;;;4993435;28;20182;-77
2023/10/24 06:35:43;;;;;;;9.50;8.37;;;;;;;;;;4993057;28;20178;-77
2023/10/24 06:38:09;;;;;;;9.07;8.27;;;;;;;;;;4993262;28;20269;-76
2023/10/24 06:40:35;;;;;;;9.50;8.60;;;;;;;;;;4973879;28;20214;-78
2023/10/24 06:43:05;;;;;;;8.60;7.87;;;;;;;;;;4993143;28;20304;-79
2023/10/24 06:45:31;;;;;;;7.67;6.97;;;;;;;;;;4985184;28;20190;-78
2023/10/24 06:47:57;;;;;;;8.00;7.30;;;;;;;;;;4993029;28;20186;-79
2023/10/24 06:50:23;;;;;;;8.03;7.23;;;;;;;;;;4993048;28;20209;-78
2023/10/24 06:52:49;;;;;;;7.87;7.17;;;;;;;;;;5037965;23;20243;-78
2023/10/24 06:55:15;;;;;;;8.23;7.37;;;;;;;;;;5016998;28;20200;-78
2023/10/24 06:57:41;;;;;;;7.73;6.93;;;;;;;;;;5001360;28;20195;-81
2023/10/24 07:00:08;;;;;;;7.90;7.20;;;;;;;;;;5015555;28;20190;-82
2023/10/24 07:02:34;;;;;;;8.27;7.37;;;;;;;;;;5035068;28;20212;-81
2023/10/24 07:05:00;;;;;;;8.37;7.67;;;;;;;;;;5032499;28;20220;-81
2023/10/24 07:07:27;;;;;;;7.83;7.13;;;;;;;;;;5023670;28;20185;-81
2023/10/24 07:09:53;;;;;;;7.60;6.80;;;;;;;;;;5035636;28;20205;-81
2023/10/24 07:12:19;;;;;;;8.37;7.07;;;;;;;;;;5019757;28;20185;-81
2023/10/24 07:14:45;;;;;;;7.73;6.93;;;;;;;;;;5019437;28;20189;-76
2023/10/24 07:17:11;;;;;;;7.37;6.70;;;;;;;;;;5018113;28;20196;-77
2023/10/24 07:19:37;;;;;;;6.97;6.37;;;;;;;;;;5020267;28;20190;-76
2023/10/24 07:22:03;;;;;;;8.00;6.60;;;;;;;;;;5006674;28;20189;-77
2023/10/24 07:24:29;;;;;;;7.20;6.43;;;;;;;;;;5027776;28;20197;-77
2023/10/24 07:26:55;;;;;;;6.63;6.03;;;;;;;;;;5027367;28;20279;-77
2023/10/24 07:29:23;;;;;;;6.87;6.27;;;;;;;;;;5024279;28;20269;-76
2023/10/24 07:31:49;;;;;;;6.63;6.03;;;;;;;;;;5011302;28;20269;-81
2023/10/24 07:34:15;;;;;;;6.77;6.07;;;;;;;;;;5010553;28;20249;-82
2023/10/24 07:36:41;;;;;;;8.27;6.13;;;;;;;;;;5006630;28;20251;-81
2023/10/24 07:39:07;;;;;;;6.43;5.67;;;;;;;;;;5027621;28;20189;-82
2023/10/24 07:41:33;;;;;;;5.73;5.23;;;;;;;;;;5044808;28;20276;-81
2023/10/24 07:43:59;;;;;;;5.93;5.23;;;;;;;;;;5004987;28;20201;-81
2023/10/24 07:46:25;;;;;;;7.23;5.93;;;;;;;;;;5012036;28;20200;-79
2023/10/24 07:48:52;;;;;;;6.20;5.70;;;;;;;;;;5024983;28;20197;-78
2023/10/24 07:51:19;;;;;;;6.00;5.50;;;;;;;;;;5010978;28;20212;-78
2023/10/24 07:53:45;;;;;;;5.87;5.37;;;;;;;;;;5041541;28;20308;-78
2023/10/24 07:56:11;;;;;;;5.43;4.93;;;;;;;;;;5025168;28;20223;-78
2023/10/24 07:58:37;;;;;;;6.67;4.97;;;;;;;;;;5019660;28;20213;-78
2023/10/24 08:01:04;;;;;;;5.13;4.70;;;;;;;;;;5026255;28;20257;-78
2023/10/24 08:03:30;;;;;;;5.13;4.67;;;;;;;;;;5002639;28;20284;-79
2023/10/24 08:05:56;;;;;;;6.80;4.87;;;;;;;;;;5037444;28;20265;-79
2023/10/24 08:08:22;;;;;;;5.10;4.67;;;;;;;;;;5023819;28;20190;-79
2023/10/24 08:10:48;;;;;;;6.57;5.20;;;;;;;;;;5007782;28;20220;-79
2023/10/24 08:13:14;;;;;;;8.77;4.97;;;;;;;;;;5023750;28;20177;-78
2023/10/24 08:15:40;;;;;;;6.17;5.57;;;;;;;;;;5004536;28;20251;-78
2023/10/24 08:18:06;;;;;;;5.40;4.90;;;;;;;;;;5026152;28;20200;-78
2023/10/24 08:20:32;;;;;;;7.93;6.00;;;;;;;;;;5039693;28;20309;-78
2023/10/24 08:22:58;;;;;;;7.53;5.43;;;;;;;;;;5022626;28;20280;-79
2023/10/24 08:25:24;;;;;;;7.63;5.80;;;;;;;;;;5016074;28;20185;-79
2023/10/24 08:27:50;;;;;;;6.33;5.73;;;;;;;;;;5011048;28;20188;-79
2023/10/24 08:30:16;;;;;;;9.67;6.30;;;;;;;;;;5037545;28;20216;-79
2023/10/24 08:32:42;;;;;;;6.60;6.00;;;;;;;;;;5022191;28;20220;-78
2023/10/24 08:35:08;;;;;;;7.37;6.63;;;;;;;;;;5005822;28;20218;-79
2023/10/24 08:37:35;;;;;;;7.23;6.53;;;;;;;;;;5021423;28;20284;-79
2023/10/24 08:40:01;;;;;;;8.27;6.60;;;;;;;;;;5023914;28;20233;-79
2023/10/24 08:42:29;;;;;;;8.13;7.30;;;;;;;;;;5008176;28;20192;-78
2023/10/24 08:44:55;;;;;;;8.20;7.40;;;;;;;;;;5038687;28;20254;-79
2023/10/24 08:47:22;;;;;;;9.00;7.40;;;;;;;;;;5020893;28;20188;-78
2023/10/24 08:49:48;;;;;;;8.23;7.53;;;;;;;;;;5018445;28;20244;-79
2023/10/24 08:52:14;;;;;;;8.67;7.83;;;;;;;;;;5011160;28;20244;-79
2023/10/24 08:54:40;;;;;;;10.17;7.63;;;;;;;;;;5018856;28;20235;-82
2023/10/24 08:57:07;;;;;;;8.57;7.77;;;;;;;;;;5023418;28;20177;-81
2023/10/24 08:59:38;;;;;;;9.50;8.57;;;;;;;;;;5026365;28;20176;-81
2023/10/24 09:02:04;;;;;;;9.27;8.47;;;;;;;;;;5023355;28;20182;-81
2023/10/24 09:04:31;;;;;;;9.13;8.23;;;;;;;;;;5017732;28;20247;-81
2023/10/24 09:06:57;;;;;;;10.00;9.00;;;;;;;;;;5026790;28;20188;-81
2023/10/24 09:09:24;;;;;;;9.87;8.80;;;;;;;;;;5021726;28;20189;-81
2023/10/24 09:11:58;;;;;;;8.47;7.73;;;;;;;;;;5025841;28;20212;-81
2023/10/24 09:14:25;;;;;;;9.80;8.80;;;;;;;;;;5037562;28;20190;-81
2023/10/24 09:17:09;;;;;;;10.00;8.97;;;;;;;;;;5008396;28;20216;-82
2023/10/24 09:19:35;;;;;;;10.37;9.27;;;;;;;;;;5018125;28;20184;-81
2023/10/24 09:22:02;;;;;;;10.87;9.37;;;;;;;;;;5021662;28;20188;-81
2023/10/24 09:24:28;;;;;;;9.87;8.87;;;;;;;;;;5007583;28;20193;-81
2023/10/24 09:26:54;;;;;;;10.67;9.57;;;;;;;;;;5021104;28;20196;-76
2023/10/24 09:29:20;;;;;;;9.43;8.53;;;;;;;;;;5024112;28;20275;-76
2023/10/24 09:31:47;;;;;;;9.43;8.53;;;;;;;;;;5011925;28;20280;-76
2023/10/24 09:34:13;;;;;;;10.87;9.77;;;;;;;;;;5035004;28;20517;-76
2023/10/24 09:36:40;;;;;;;9.63;8.60;;;;;;;;;;5025382;28;20185;-76
2023/10/24 09:39:06;;;;;;;11.57;8.50;;;;;;;;;;5023711;28;20182;-76
2023/10/24 09:41:32;;;;;;;9.43;8.23;;;;;;;;;;5022787;28;20197;-77
2023/10/24 09:44:01;;;;;;;9.83;8.50;;;;;;;;;;5004484;28;20201;-78
2023/10/24 09:46:28;;;;;;;9.23;7.97;;;;;;;;;;5022727;28;20180;-78
2023/10/24 09:48:55;;;;;;;8.00;7.23;;;;;;;;;;5022737;28;20235;-78
2023/10/24 09:51:36;;;;;;;7.80;7.10;;;;;;;;;;4972838;28;20233;-79
2023/10/24 09:54:03;;;;;;;8.23;7.10;;;;;;;;;;5020302;28;20489;-77
2023/10/24 09:56:30;;;;;;;8.57;7.75;;;;;;;;;;5020449;28;20454;-78
2023/10/24 09:58:56;;;;;;;8.57;7.70;;;;;;;;;;5004795;28;20442;-78
2023/10/24 10:01:23;;;;;;;8.67;7.73;;;;;;;;;;5025776;28;20513;-82
2023/10/24 10:03:53;;;;;;;9.53;7.37;;;;;;;;;;5036746;28;20398;-81
2023/10/24 10:06:19;;;;;;;7.25;6.55;;;;;;;;;;5027048;28;20399;-82
2023/10/24 10:08:45;;;;;;;7.32;6.63;;;;;;;;;;5020624;28;20409;-82
2023/10/24 10:11:11;;;;;;;7.32;6.63;;;;;;;;;;5022044;28;20435;-81
2023/10/24 10:13:51;;;;;;;8.23;7.37;;;;;;;;;;5020364;28;20428;-80
2023/10/24 10:16:26;;;;;;;7.72;6.82;;;;;;;;;;5013541;28;20417;-79
2023/10/24 10:19:13;;;;;;;9.18;7.15;;;;;;;;;;5039334;28;20417;-79
2023/10/24 10:21:58;;;;;;;7.67;6.90;;;;;;;;;;5014212;28;20202;-79
2023/10/24 10:24:27;;;;;;;8.03;6.93;;;;;;;;;;5018197;28;20177;-79
2023/10/24 10:27:03;;;;;;;8.00;6.33;;;;;;;;;;5032407;28;20290;-79
2023/10/24 10:29:41;;;;;;;6.70;5.93;;;;;;;;;;5038757;28;20187;-79
2023/10/24 10:32:22;;;;;;;8.60;6.23;;;;;;;;;;5034060;28;20193;-79
2023/10/24 10:34:50;;;;;;;6.50;5.90;;;;;;;;;;5025363;28;20181;-76
2023/10/24 10:37:17;;;;;;;7.90;5.53;;;;;;;;;;5012762;28;20180;-76
2023/10/24 10:39:43;;;;;;;6.80;5.90;;;;;;;;;;5000443;28;20208;-76
2023/10/24 10:42:29;;;;;;;6.82;6.13;;;;;;;;;;5023055;28;20422;-76
2023/10/24 10:44:55;;;;;;;6.85;5.75;;;;;;;;;;5018208;28;20407;-76
2023/10/24 10:47:25;;;;;;;6.15;5.55;;;;;;;;;;5018855;28;20425;-77
2023/10/24 10:49:53;;;;;;;6.35;5.75;;;;;;;;;;5029053;28;20409;-78
2023/10/24 10:52:28;;;;;;;6.38;5.47;;;;;;;;;;5018428;28;20454;-78
2023/10/24 10:55:03;;;;;;;5.90;5.30;;;;;;;;;;5018219;28;20417;-78
2023/10/24 10:57:30;;;;;;;6.00;5.40;;;;;;;;;;5008105;28;20494;-78
2023/10/24 11:00:02;;;;;;;6.28;5.60;;;;;;;;;;5016308;28;20483;-78
2023/10/24 11:02:42;;;;;;;7.30;5.82;;;;;;;;;;5015705;28;20433;-78
2023/10/24 11:05:37;;;;;;;6.13;5.53;;;;;;;;;;5013786;28;20480;-78
2023/10/24 11:08:06;;;;;;;5.60;4.93;;;;;;;;;;5010725;28;20193;-78
2023/10/24 11:10:52;;;;;;;5.77;5.10;;;;;;;;;;5032296;28;20212;-78
2023/10/24 11:13:37;;;;;;;5.83;5.30;;;;;;;;;;5032651;28;20173;-79
2023/10/24 11:16:04;;;;;;;6.93;5.65;;;;;;;;;;5032146;28;20501;-79
2023/10/24 11:18:31;;;;;;;6.90;5.73;;;;;;;;;;5017367;28;20256;-79
2023/10/24 11:20:57;;;;;;;6.30;5.70;;;;;;;;;;5016223;28;20196;-80
2023/10/24 11:23:23;;;;;;;5.80;5.20;;;;;;;;;;5032524;28;20216;-82
2023/10/24 11:25:49;;;;;;;7.77;5.90;;;;;;;;;;5021071;28;20191;-82
2023/10/24 11:28:16;;;;;;;7.37;5.67;;;;;;;;;;5010728;28;20212;-82
2023/10/24 11:30:42;;;;;;;6.10;5.50;;;;;;;;;;5024501;28;20208;-82
2023/10/24 11:33:08;;;;;;;9.00;5.97;;;;;;;;;;5042972;28;20181;-82
2023/10/24 11:35:34;;;;;;;6.07;5.40;;;;;;;;;;5032851;28;20190;-83
2023/10/24 11:38:00;;;;;;;6.80;5.40;;;;;;;;;;5016848;28;20184;-81
2023/10/24 11:40:26;;;;;;;6.27;4.83;;;;;;;;;;5000355;28;20192;-79
2023/10/24 11:42:52;;;;;;;6.53;5.30;;;;;;;;;;5015959;28;20189;-79
2023/10/24 11:45:18;;;;;;;7.77;5.73;;;;;;;;;;5020047;28;20322;-78
2023/10/24 11:47:44;;;;;;;6.00;5.50;;;;;;;;;;5024696;28;20215;-78
2023/10/24 11:50:13;;;;;;;7.33;5.00;;;;;;;;;;5015355;28;20316;-78
2023/10/24 11:52:39;;;;;;;6.10;4.83;;;;;;;;;;5019237;28;20279;-78
2023/10/24 11:55:06;;;;;;;8.13;5.27;;;;;;;;;;5003267;28;20189;-78
2023/10/24 11:57:33;;;;;;;5.90;5.30;;;;;;;;;;5032180;28;20287;-82
2023/10/24 11:59:59;;;;;;;8.17;5.43;;;;;;;;;;5031998;28;20182;-82
2023/10/24 12:02:25;;;;;;;9.87;5.80;;;;;;;;;;5031830;28;20238;-81
2023/10/24 12:04:51;;;;;;;7.33;5.43;;;;;;;;;;5017524;28;20189;-81
2023/10/24 12:07:17;;;;;;;6.32;5.72;;;;;;;;;;5024532;28;20423;-81
2023/10/24 12:09:43;;;;;;;7.00;5.70;;;;;;;;;;5016663;28;20426;-81
2023/10/24 12:12:11;;;;;;;7.90;6.18;;;;;;;;;;5045850;28;20417;-81
2023/10/24 12:14:38;;;;;;;7.97;5.80;;;;;;;;;;5051640;28;20425;-82
2023/10/24 12:17:04;;;;;;;7.10;5.60;;;;;;;;;;5017922;28;20439;-81
2023/10/24 12:19:30;;;;;;;6.75;5.75;;;;;;;;;;5025840;28;20409;-81
2023/10/24 12:21:56;;;;;;;7.15;5.30;;;;;;;;;;5001179;28;20487;-80
2023/10/24 12:24:22;;;;;;;7.00;5.47;;;;;;;;;;5012434;28;20412;-81
2023/10/24 12:26:48;;;;;;;6.07;5.10;;;;;;;;;;5044474;28;20401;-81
2023/10/24 12:29:14;;;;;;;5.70;4.68;;;;;;;;;;5016079;28;20512;-81
2023/10/24 12:31:41;;;;;;;4.75;4.35;;;;;;;;;;5050158;28;20433;-78
2023/10/24 12:34:10;;;;;;;5.13;4.63;;;;;;;;;;5034874;28;20413;-78
2023/10/24 12:36:36;;;;;;;5.03;4.53;;;;;;;;;;5042443;28;20430;-78
2023/10/24 12:39:02;;;;;;;5.27;4.40;;;;;;;;;;5009042;28;20445;-79
2023/10/24 12:41:29;;;;;;;5.05;4.10;;;;;;;;;;5033630;28;20434;-79
2023/10/24 12:43:55;;;;;;;4.22;3.70;;;;;;;;;;5035274;28;20405;-78
2023/10/24 12:46:21;;;;;;;5.03;4.55;;;;;;;;;;5008466;28;20472;-78
2023/10/24 12:48:47;;;;;;;4.40;4.00;;;;;;;;;;5010619;28;20455;-77
2023/10/24 12:51:13;;;;;;;4.55;4.15;;;;;;;;;;4995974;28;20529;-78
2023/10/24 12:53:40;;;;;;;4.40;4.00;;;;;;;;;;5002290;28;20460;-79
2023/10/24 12:56:07;;;;;;;4.40;4.00;;;;;;;;;;5012821;28;20444;-79
2023/10/24 12:58:33;;;;;;;4.30;3.90;;;;;;;;;;5017773;28;20411;-77
2023/10/24 13:01:00;;;;;;;4.57;4.18;;;;;;;;;;5013686;28;20460;-78
2023/10/24 13:03:26;;;;;;;3.90;3.58;;;;;;;;;;4997069;28;20426;-78
2023/10/24 13:05:52;;;;;;;4.03;3.63;;;;;;;;;;5017706;28;20213;-78
2023/10/24 13:08:24;;;;;;;5.10;3.70;;;;;;;;;;5027425;22;20327;-83
2023/10/24 13:11:05;;;;;;;3.83;3.43;;;;;;;;;;5010102;28;20267;-83
2023/10/24 13:13:34;;;;;;;4.00;3.60;;;;;;;;;;5010907;28;20173;-83
2023/10/24 13:16:03;;;;;;;4.70;3.63;;;;;;;;;;5008136;28;20196;-83
2023/10/24 13:18:31;;;;;;;6.07;4.00;;;;;;;;;;5001875;28;20185;-84
2023/10/24 13:20:57;;;;;;;4.37;3.97;;;;;;;;;;5027238;28;20197;-83
2023/10/24 13:23:23;;;;;;;4.53;3.70;;;;;;;;;;5005808;28;20197;-83
2023/10/24 13:25:50;;;;;;;4.40;4.00;;;;;;;;;;5021136;28;20209;-83
2023/10/24 13:28:21;;;;;;;4.27;3.87;;;;;;;;;;5020998;28;20185;-84
2023/10/24 13:30:50;;;;;;;5.10;3.90;;;;;;;;;;5022079;28;20200;-83
2023/10/24 13:33:16;;;;;;;4.60;4.00;;;;;;;;;;4994001;28;20186;-84
2023/10/24 13:35:42;;;;;;;4.37;3.97;;;;;;;;;;5001761;28;20195;-84
2023/10/24 13:38:08;;;;;;;4.77;3.97;;;;;;;;;;5010574;28;20194;-83
2023/10/24 13:40:34;;;;;;;6.93;4.43;;;;;;;;;;5006618;28;20253;-84
2023/10/24 13:43:03;;;;;;;5.10;4.60;;;;;;;;;;5010536;28;20273;-83
2023/10/24 13:45:29;;;;;;;5.23;4.70;;;;;;;;;;5014199;28;20185;-83
2023/10/24 13:47:56;;;;;;;4.77;4.30;;;;;;;;;;5014104;28;20308;-83
2023/10/24 13:50:31;;;;;;;4.67;3.93;;;;;;;;;;5012314;28;20213;-84
2023/10/24 13:52:59;;;;;;;4.67;3.97;;;;;;;;;;5013541;28;20181;-83
2023/10/24 13:55:28;;;;;;;3.70;3.40;;;;;;;;;;5013750;28;20181;-84
2023/10/24 13:57:57;;;;;;;4.37;3.70;;;;;;;;;;5014039;28;20407;-84
2023/10/24 14:00:24;;;;;;;3.50;3.20;;;;;;;;;;5013286;28;20184;-83
2023/10/24 14:02:50;;;;;;;4.70;3.30;;;;;;;;;;5014017;28;20185;-83
2023/10/24 14:05:16;;;;;;;4.00;2.93;;;;;;;;;;5013140;28;20182;-84
2023/10/24 14:07:44;;;;;;;3.20;2.43;;;;;;;;;;5021165;28;20229;-83
2023/10/24 14:10:10;;;;;;;3.63;2.93;;;;;;;;;;5009982;28;20217;-84
2023/10/24 14:12:36;;;;;;;5.07;3.17;;;;;;;;;;5004786;28;20250;-83
2023/10/24 14:15:05;;;;;;;3.17;2.77;;;;;;;;;;4996986;28;20263;-84
2023/10/24 14:17:31;;;;;;;3.10;2.80;;;;;;;;;;5030166;28;20187;-83
2023/10/24 14:19:57;;;;;;;3.77;3.03;;;;;;;;;;5014323;28;20264;-83
2023/10/24 14:22:31;;;;;;;3.13;2.80;;;;;;;;;;5014379;28;20269;-84
2023/10/24 14:24:58;;;;;;;4.93;3.10;;;;;;;;;;5016122;28;20243;-84
2023/10/24 14:27:26;;;;;;;4.70;3.20;;;;;;;;;;5005318;28;20209;-83
2023/10/24 14:29:52;;;;;;;3.20;2.90;;;;;;;;;;4999952;28;20174;-83
2023/10/24 14:32:18;;;;;;;3.30;2.60;;;;;;;;;;5004287;28;20185;-83
2023/10/24 14:34:44;;;;;;;3.17;2.67;;;;;;;;;;5014359;28;20186;-83
2023/10/24 14:37:13;;;;;;;3.40;3.10;;;;;;;;;;5009550;28;20196;-83
2023/10/24 14:39:40;;;;;;;3.57;3.27;;;;;;;;;;5014671;28;20193;-83